This is the latest recevied weather packets stored in our database for station/object GW7204. If no packets are shown the sender has not sent any weather packets the latest 10 day(s).
| Time | Temp. | Humidity | Pressure | Rain* | Wind** | Luminosity | Snow |
|---|---|---|---|---|---|---|---|
| 1777491380 | 16.67° C | 94% | 1007.7 hPa | 10.16 mm | - | - | - |
| 1777485267 | 16.67° C | 97% | 1007.7 hPa | 10.16 mm | - | - | - |
| 1777481668 | 16.11° C | 99% | 1008.4 hPa | 7.62 mm | - | - | - |
| 1777480578 | 16.67° C | 99% | 1008.4 hPa | 6.35 mm | - | - | - |
| 1777480229 | 16.67° C | 99% | 1008.4 hPa | 5.59 mm | - | - | - |
| 1777477711 | 16.67° C | 98% | 1008.8 hPa | 2.29 mm | - | - | - |
| 1777476262 | 16.67° C | 96% | 1009.4 hPa | 0.25 mm | - | - | - |
| 1777475927 | 16.67° C | 95% | 1009.4 hPa | 0.25 mm | - | - | - |
| 1777474460 | 17.78° C | 89% | 1009.1 hPa | 0 mm | - | - | - |
| 1777469809 | 16.11° C | 94% | 1009.8 hPa | 0 mm | - | - | - |
| 1777469074 | 15.56° C | 96% | 1009.8 hPa | 0 mm | - | - | - |
| 1777467288 | 15° C | 97% | 1009.8 hPa | 0 mm | - | - | - |
| 1777466905 | 15° C | 97% | 1009.8 hPa | 0 mm | - | - | - |
| 1777465467 | 15° C | 99% | 1009.8 hPa | 0 mm | - | - | - |
| 1777464764 | 14.44° C | 99% | 1010.1 hPa | 0 mm | - | - | - |
| 1777464393 | 14.44° C | 99% | 1009.8 hPa | 0 mm | - | - | - |
| 1777462580 | 13.89° C | 99% | 1010.1 hPa | 0 mm | - | - | - |
| 1777453241 | 13.33° C | 99% | 1010.4 hPa | 0 mm | - | - | - |
| 1777452889 | 13.33° C | 99% | 1010.4 hPa | 0 mm | - | - | - |
| 1777452153 | 13.33° C | 99% | 1010.1 hPa | 0 mm | - | - | - |
| 1777448568 | 13.33° C | 99% | 1010.4 hPa | 0 mm | - | - | - |
| 1777448179 | 13.33° C | 99% | 1010.4 hPa | 0 mm | - | - | - |
| 1777445669 | 13.33° C | 99% | 1010.8 hPa | 0 mm | - | - | - |
| 1777445330 | 13.33° C | 99% | 1011.1 hPa | 0 mm | - | - | - |
| 1777443878 | 13.33° C | 99% | 1011.5 hPa | 0 mm | - | - | - |
* Rain since midnight (hover to see other rain measurements)
** Current wind speed in m/s (hover to see current wind gust speed)